sensor_id;sensor_type;location;lat;lon;timestamp;P1;durP1;ratioP1;P2;durP2;ratioP2
23338;SDS011;11841;49.368;20.962;2022-07-22T00:00:49;9.98;;;3.13;;
23338;SDS011;11841;49.368;20.962;2022-07-22T00:03:15;9.18;;;3.88;;
23338;SDS011;11841;49.368;20.962;2022-07-22T00:05:42;8.82;;;4.30;;
23338;SDS011;11841;49.368;20.962;2022-07-22T00:08:09;10.98;;;4.07;;
23338;SDS011;11841;49.368;20.962;2022-07-22T00:10:35;7.03;;;3.15;;
23338;SDS011;11841;49.368;20.962;2022-07-22T00:13:02;10.38;;;4.07;;
23338;SDS011;11841;49.368;20.962;2022-07-22T00:15:29;5.05;;;3.60;;
23338;SDS011;11841;49.368;20.962;2022-07-22T00:17:56;5.68;;;4.03;;
23338;SDS011;11841;49.368;20.962;2022-07-22T00:20:22;5.45;;;3.45;;
23338;SDS011;11841;49.368;20.962;2022-07-22T00:22:49;5.30;;;3.97;;
23338;SDS011;11841;49.368;20.962;2022-07-22T00:25:16;5.50;;;3.65;;
23338;SDS011;11841;49.368;20.962;2022-07-22T00:27:42;8.05;;;4.22;;
23338;SDS011;11841;49.368;20.962;2022-07-22T00:30:09;9.02;;;3.53;;
23338;SDS011;11841;49.368;20.962;2022-07-22T00:32:36;7.25;;;3.90;;
23338;SDS011;11841;49.368;20.962;2022-07-22T00:35:03;4.80;;;3.60;;
23338;SDS011;11841;49.368;20.962;2022-07-22T00:37:30;5.35;;;3.92;;
23338;SDS011;11841;49.368;20.962;2022-07-22T00:39:57;10.45;;;3.22;;
23338;SDS011;11841;49.368;20.962;2022-07-22T00:42:24;5.88;;;3.55;;
23338;SDS011;11841;49.368;20.962;2022-07-22T00:44:51;5.57;;;3.47;;
23338;SDS011;11841;49.368;20.962;2022-07-22T00:47:17;9.80;;;3.92;;
23338;SDS011;11841;49.368;20.962;2022-07-22T00:49:44;6.10;;;4.28;;
23338;SDS011;11841;49.368;20.962;2022-07-22T00:52:11;5.95;;;3.40;;
23338;SDS011;11841;49.368;20.962;2022-07-22T00:54:39;6.15;;;3.42;;
23338;SDS011;11841;49.368;20.962;2022-07-22T00:57:05;9.05;;;4.40;;
23338;SDS011;11841;49.368;20.962;2022-07-22T00:59:32;6.18;;;3.60;;
23338;SDS011;11841;49.368;20.962;2022-07-22T01:01:59;6.75;;;3.17;;
23338;SDS011;11841;49.368;20.962;2022-07-22T01:04:26;9.50;;;3.78;;
23338;SDS011;11841;49.368;20.962;2022-07-22T01:06:53;5.70;;;3.67;;
23338;SDS011;11841;49.368;20.962;2022-07-22T01:09:19;4.10;;;3.50;;
23338;SDS011;11841;49.368;20.962;2022-07-22T01:11:46;7.05;;;4.03;;
23338;SDS011;11841;49.368;20.962;2022-07-22T01:14:13;6.45;;;4.28;;
23338;SDS011;11841;49.368;20.962;2022-07-22T01:16:40;8.20;;;3.65;;
23338;SDS011;11841;49.368;20.962;2022-07-22T01:19:10;4.43;;;3.33;;
23338;SDS011;11841;49.368;20.962;2022-07-22T01:21:37;6.80;;;3.72;;
23338;SDS011;11841;49.368;20.962;2022-07-22T01:24:04;6.65;;;3.65;;
23338;SDS011;11841;49.368;20.962;2022-07-22T01:26:31;5.90;;;4.13;;
23338;SDS011;11841;49.368;20.962;2022-07-22T01:28:59;5.47;;;3.97;;
23338;SDS011;11841;49.368;20.962;2022-07-22T01:31:27;4.95;;;3.28;;
23338;SDS011;11841;49.368;20.962;2022-07-22T01:33:54;9.15;;;4.00;;
23338;SDS011;11841;49.368;20.962;2022-07-22T01:36:21;6.30;;;3.50;;
23338;SDS011;11841;49.368;20.962;2022-07-22T01:38:48;10.98;;;4.00;;
23338;SDS011;11841;49.368;20.962;2022-07-22T01:41:14;9.90;;;4.18;;
23338;SDS011;11841;49.368;20.962;2022-07-22T01:43:41;6.82;;;4.00;;
23338;SDS011;11841;49.368;20.962;2022-07-22T01:46:08;6.00;;;3.33;;
23338;SDS011;11841;49.368;20.962;2022-07-22T01:48:34;8.50;;;4.65;;
23338;SDS011;11841;49.368;20.962;2022-07-22T01:51:02;5.45;;;3.78;;
23338;SDS011;11841;49.368;20.962;2022-07-22T01:53:29;4.60;;;3.30;;
23338;SDS011;11841;49.368;20.962;2022-07-22T01:55:55;6.38;;;3.75;;
23338;SDS011;11841;49.368;20.962;2022-07-22T01:58:22;5.70;;;3.92;;
23338;SDS011;11841;49.368;20.962;2022-07-22T02:00:49;5.07;;;3.53;;
23338;SDS011;11841;49.368;20.962;2022-07-22T02:03:16;5.82;;;3.88;;
23338;SDS011;11841;49.368;20.962;2022-07-22T02:05:43;8.60;;;4.90;;
23338;SDS011;11841;49.368;20.962;2022-07-22T02:08:10;7.60;;;4.30;;
23338;SDS011;11841;49.368;20.962;2022-07-22T02:10:37;4.82;;;3.30;;
23338;SDS011;11841;49.368;20.962;2022-07-22T02:13:04;8.70;;;3.70;;
23338;SDS011;11841;49.368;20.962;2022-07-22T02:15:31;8.23;;;4.05;;
23338;SDS011;11841;49.368;20.962;2022-07-22T02:17:59;5.35;;;3.50;;
23338;SDS011;11841;49.368;20.962;2022-07-22T02:20:25;4.95;;;3.33;;
23338;SDS011;11841;49.368;20.962;2022-07-22T02:22:52;6.00;;;3.33;;
23338;SDS011;11841;49.368;20.962;2022-07-22T02:25:19;10.85;;;3.95;;
23338;SDS011;11841;49.368;20.962;2022-07-22T02:27:45;5.10;;;3.85;;
23338;SDS011;11841;49.368;20.962;2022-07-22T02:30:12;8.88;;;4.47;;
23338;SDS011;11841;49.368;20.962;2022-07-22T02:32:39;5.63;;;3.75;;
23338;SDS011;11841;49.368;20.962;2022-07-22T02:35:05;7.93;;;3.42;;
23338;SDS011;11841;49.368;20.962;2022-07-22T02:37:32;8.27;;;3.50;;
23338;SDS011;11841;49.368;20.962;2022-07-22T02:39:59;6.32;;;4.22;;
23338;SDS011;11841;49.368;20.962;2022-07-22T02:42:26;8.38;;;4.13;;
23338;SDS011;11841;49.368;20.962;2022-07-22T02:44:53;5.88;;;4.05;;
23338;SDS011;11841;49.368;20.962;2022-07-22T02:47:20;5.13;;;3.72;;
23338;SDS011;11841;49.368;20.962;2022-07-22T02:49:46;7.93;;;3.60;;
23338;SDS011;11841;49.368;20.962;2022-07-22T02:52:13;5.72;;;3.80;;
23338;SDS011;11841;49.368;20.962;2022-07-22T02:54:40;4.03;;;3.22;;
23338;SDS011;11841;49.368;20.962;2022-07-22T02:57:07;7.82;;;3.58;;
23338;SDS011;11841;49.368;20.962;2022-07-22T02:59:33;7.57;;;3.60;;
23338;SDS011;11841;49.368;20.962;2022-07-22T03:02:00;7.20;;;3.70;;
23338;SDS011;11841;49.368;20.962;2022-07-22T03:04:27;7.07;;;4.20;;
23338;SDS011;11841;49.368;20.962;2022-07-22T03:06:53;8.45;;;3.75;;
23338;SDS011;11841;49.368;20.962;2022-07-22T03:09:21;6.97;;;4.05;;
23338;SDS011;11841;49.368;20.962;2022-07-22T03:11:47;7.72;;;4.18;;
23338;SDS011;11841;49.368;20.962;2022-07-22T03:14:14;6.82;;;3.63;;
23338;SDS011;11841;49.368;20.962;2022-07-22T03:16:42;9.63;;;4.10;;
23338;SDS011;11841;49.368;20.962;2022-07-22T03:19:09;8.50;;;3.97;;
23338;SDS011;11841;49.368;20.962;2022-07-22T03:21:35;4.93;;;3.60;;
23338;SDS011;11841;49.368;20.962;2022-07-22T03:24:02;8.93;;;4.05;;
23338;SDS011;11841;49.368;20.962;2022-07-22T03:26:29;6.55;;;3.78;;
23338;SDS011;11841;49.368;20.962;2022-07-22T03:28:56;5.28;;;4.00;;
23338;SDS011;11841;49.368;20.962;2022-07-22T03:31:22;7.05;;;3.78;;
23338;SDS011;11841;49.368;20.962;2022-07-22T03:33:49;4.75;;;3.35;;
23338;SDS011;11841;49.368;20.962;2022-07-22T03:36:16;5.43;;;3.50;;
23338;SDS011;11841;49.368;20.962;2022-07-22T03:38:43;7.32;;;4.30;;
23338;SDS011;11841;49.368;20.962;2022-07-22T03:41:10;5.88;;;4.03;;
23338;SDS011;11841;49.368;20.962;2022-07-22T03:43:36;9.32;;;3.53;;
23338;SDS011;11841;49.368;20.962;2022-07-22T03:46:03;5.07;;;3.83;;
23338;SDS011;11841;49.368;20.962;2022-07-22T03:48:30;7.65;;;4.00;;
23338;SDS011;11841;49.368;20.962;2022-07-22T03:50:56;7.47;;;4.10;;
23338;SDS011;11841;49.368;20.962;2022-07-22T03:53:23;4.78;;;3.35;;
23338;SDS011;11841;49.368;20.962;2022-07-22T03:55:50;5.63;;;4.43;;
23338;SDS011;11841;49.368;20.962;2022-07-22T03:58:16;9.07;;;4.63;;
23338;SDS011;11841;49.368;20.962;2022-07-22T04:00:44;9.93;;;3.92;;
23338;SDS011;11841;49.368;20.962;2022-07-22T04:03:11;6.05;;;3.45;;
23338;SDS011;11841;49.368;20.962;2022-07-22T04:05:38;8.32;;;4.00;;
23338;SDS011;11841;49.368;20.962;2022-07-22T04:08:04;8.90;;;4.20;;
23338;SDS011;11841;49.368;20.962;2022-07-22T04:10:31;6.13;;;4.57;;
23338;SDS011;11841;49.368;20.962;2022-07-22T04:12:58;6.13;;;4.55;;
23338;SDS011;11841;49.368;20.962;2022-07-22T04:15:25;9.07;;;4.65;;
23338;SDS011;11841;49.368;20.962;2022-07-22T04:17:51;7.57;;;5.53;;
23338;SDS011;11841;49.368;20.962;2022-07-22T04:20:18;8.70;;;4.63;;
23338;SDS011;11841;49.368;20.962;2022-07-22T04:22:45;9.20;;;5.40;;
23338;SDS011;11841;49.368;20.962;2022-07-22T04:25:11;9.57;;;4.60;;
23338;SDS011;11841;49.368;20.962;2022-07-22T04:27:38;5.03;;;4.13;;
23338;SDS011;11841;49.368;20.962;2022-07-22T04:30:05;5.82;;;3.97;;
23338;SDS011;11841;49.368;20.962;2022-07-22T04:32:32;9.88;;;4.75;;
23338;SDS011;11841;49.368;20.962;2022-07-22T04:34:59;8.18;;;4.35;;
23338;SDS011;11841;49.368;20.962;2022-07-22T04:37:25;8.60;;;5.25;;
23338;SDS011;11841;49.368;20.962;2022-07-22T04:39:52;6.53;;;4.53;;
23338;SDS011;11841;49.368;20.962;2022-07-22T04:42:19;8.00;;;4.78;;
23338;SDS011;11841;49.368;20.962;2022-07-22T04:44:46;10.30;;;5.13;;
23338;SDS011;11841;49.368;20.962;2022-07-22T04:47:12;11.20;;;4.65;;
23338;SDS011;11841;49.368;20.962;2022-07-22T04:49:39;8.68;;;4.60;;
23338;SDS011;11841;49.368;20.962;2022-07-22T04:52:06;12.68;;;4.95;;
23338;SDS011;11841;49.368;20.962;2022-07-22T04:54:35;11.23;;;4.82;;
23338;SDS011;11841;49.368;20.962;2022-07-22T04:57:02;10.67;;;4.97;;
23338;SDS011;11841;49.368;20.962;2022-07-22T04:59:28;9.50;;;5.38;;
23338;SDS011;11841;49.368;20.962;2022-07-22T05:01:55;9.55;;;5.63;;
23338;SDS011;11841;49.368;20.962;2022-07-22T05:04:22;8.00;;;5.28;;
23338;SDS011;11841;49.368;20.962;2022-07-22T05:06:48;8.88;;;5.53;;
23338;SDS011;11841;49.368;20.962;2022-07-22T05:09:15;8.70;;;5.57;;
23338;SDS011;11841;49.368;20.962;2022-07-22T05:11:42;14.43;;;5.13;;
23338;SDS011;11841;49.368;20.962;2022-07-22T05:14:08;11.43;;;5.30;;
23338;SDS011;11841;49.368;20.962;2022-07-22T05:16:35;12.48;;;6.25;;
23338;SDS011;11841;49.368;20.962;2022-07-22T05:19:05;11.25;;;5.47;;
23338;SDS011;11841;49.368;20.962;2022-07-22T05:21:32;8.35;;;5.90;;
23338;SDS011;11841;49.368;20.962;2022-07-22T05:23:59;12.85;;;6.22;;
23338;SDS011;11841;49.368;20.962;2022-07-22T05:26:26;19.70;;;5.95;;
23338;SDS011;11841;49.368;20.962;2022-07-22T05:28:55;12.77;;;6.95;;
23338;SDS011;11841;49.368;20.962;2022-07-22T05:31:23;13.75;;;5.05;;
23338;SDS011;11841;49.368;20.962;2022-07-22T05:33:50;12.75;;;5.00;;
23338;SDS011;11841;49.368;20.962;2022-07-22T05:36:17;10.57;;;5.43;;
23338;SDS011;11841;49.368;20.962;2022-07-22T05:38:44;10.32;;;5.63;;
23338;SDS011;11841;49.368;20.962;2022-07-22T05:41:10;11.68;;;6.35;;
23338;SDS011;11841;49.368;20.962;2022-07-22T05:43:37;12.02;;;5.32;;
23338;SDS011;11841;49.368;20.962;2022-07-22T05:46:04;11.63;;;5.95;;
23338;SDS011;11841;49.368;20.962;2022-07-22T05:48:31;13.35;;;4.95;;
23338;SDS011;11841;49.368;20.962;2022-07-22T05:50:58;17.15;;;5.43;;
23338;SDS011;11841;49.368;20.962;2022-07-22T05:53:25;14.32;;;5.35;;
23338;SDS011;11841;49.368;20.962;2022-07-22T05:55:51;16.90;;;6.07;;
23338;SDS011;11841;49.368;20.962;2022-07-22T05:58:18;16.10;;;6.07;;
23338;SDS011;11841;49.368;20.962;2022-07-22T06:00:44;12.48;;;5.82;;
23338;SDS011;11841;49.368;20.962;2022-07-22T06:03:11;10.68;;;5.38;;
23338;SDS011;11841;49.368;20.962;2022-07-22T06:05:43;11.93;;;6.10;;
23338;SDS011;11841;49.368;20.962;2022-07-22T06:08:10;10.93;;;6.22;;
23338;SDS011;11841;49.368;20.962;2022-07-22T06:10:36;13.68;;;6.43;;
23338;SDS011;11841;49.368;20.962;2022-07-22T06:13:03;12.50;;;5.70;;
23338;SDS011;11841;49.368;20.962;2022-07-22T06:15:30;11.95;;;5.53;;
23338;SDS011;11841;49.368;20.962;2022-07-22T06:17:57;7.53;;;4.93;;
23338;SDS011;11841;49.368;20.962;2022-07-22T06:20:24;13.15;;;5.95;;
23338;SDS011;11841;49.368;20.962;2022-07-22T06:22:50;9.55;;;5.05;;
23338;SDS011;11841;49.368;20.962;2022-07-22T06:25:17;13.52;;;6.13;;
23338;SDS011;11841;49.368;20.962;2022-07-22T06:28:04;14.30;;;5.50;;
23338;SDS011;11841;49.368;20.962;2022-07-22T06:30:31;9.35;;;4.93;;
23338;SDS011;11841;49.368;20.962;2022-07-22T06:32:57;16.45;;;6.30;;
23338;SDS011;11841;49.368;20.962;2022-07-22T06:35:24;16.67;;;6.30;;
23338;SDS011;11841;49.368;20.962;2022-07-22T06:37:51;9.63;;;5.90;;
23338;SDS011;11841;49.368;20.962;2022-07-22T06:40:30;14.77;;;5.45;;
23338;SDS011;11841;49.368;20.962;2022-07-22T06:42:57;12.35;;;6.43;;
23338;SDS011;11841;49.368;20.962;2022-07-22T06:45:24;13.85;;;6.85;;
23338;SDS011;11841;49.368;20.962;2022-07-22T06:47:50;10.40;;;5.30;;
23338;SDS011;11841;49.368;20.962;2022-07-22T06:50:17;11.57;;;5.35;;
23338;SDS011;11841;49.368;20.962;2022-07-22T06:52:44;20.42;;;5.13;;
23338;SDS011;11841;49.368;20.962;2022-07-22T06:55:10;19.55;;;5.32;;
23338;SDS011;11841;49.368;20.962;2022-07-22T06:57:37;11.77;;;5.53;;
23338;SDS011;11841;49.368;20.962;2022-07-22T07:00:04;9.18;;;5.85;;
23338;SDS011;11841;49.368;20.962;2022-07-22T07:02:36;12.40;;;6.07;;
23338;SDS011;11841;49.368;20.962;2022-07-22T07:05:02;11.45;;;6.88;;
23338;SDS011;11841;49.368;20.962;2022-07-22T07:07:29;11.07;;;5.65;;
23338;SDS011;11841;49.368;20.962;2022-07-22T07:09:56;7.50;;;6.13;;
23338;SDS011;11841;49.368;20.962;2022-07-22T07:12:23;15.48;;;6.93;;
23338;SDS011;11841;49.368;20.962;2022-07-22T07:14:49;8.23;;;5.63;;
23338;SDS011;11841;49.368;20.962;2022-07-22T07:17:36;10.10;;;5.43;;
23338;SDS011;11841;49.368;20.962;2022-07-22T07:20:03;10.38;;;6.07;;
23338;SDS011;11841;49.368;20.962;2022-07-22T07:22:31;11.20;;;6.10;;
23338;SDS011;11841;49.368;20.962;2022-07-22T07:25:01;12.85;;;5.95;;
23338;SDS011;11841;49.368;20.962;2022-07-22T07:27:30;10.88;;;5.68;;
23338;SDS011;11841;49.368;20.962;2022-07-22T07:29:57;9.90;;;4.97;;
23338;SDS011;11841;49.368;20.962;2022-07-22T07:32:23;8.77;;;5.35;;
23338;SDS011;11841;49.368;20.962;2022-07-22T07:34:50;10.15;;;5.63;;
23338;SDS011;11841;49.368;20.962;2022-07-22T07:37:17;11.43;;;5.57;;
23338;SDS011;11841;49.368;20.962;2022-07-22T07:39:43;12.90;;;5.97;;
23338;SDS011;11841;49.368;20.962;2022-07-22T07:42:27;13.65;;;5.18;;
23338;SDS011;11841;49.368;20.962;2022-07-22T07:44:54;10.23;;;6.00;;
23338;SDS011;11841;49.368;20.962;2022-07-22T07:47:22;9.67;;;5.40;;
23338;SDS011;11841;49.368;20.962;2022-07-22T07:49:49;12.32;;;5.68;;
23338;SDS011;11841;49.368;20.962;2022-07-22T07:52:16;10.73;;;5.85;;
23338;SDS011;11841;49.368;20.962;2022-07-22T07:54:44;10.48;;;5.65;;
23338;SDS011;11841;49.368;20.962;2022-07-22T07:57:31;8.75;;;6.18;;
23338;SDS011;11841;49.368;20.962;2022-07-22T07:59:58;21.23;;;5.78;;
23338;SDS011;11841;49.368;20.962;2022-07-22T08:02:24;12.45;;;5.50;;
23338;SDS011;11841;49.368;20.962;2022-07-22T08:04:51;6.57;;;4.72;;
23338;SDS011;11841;49.368;20.962;2022-07-22T08:07:23;11.65;;;5.65;;
23338;SDS011;11841;49.368;20.962;2022-07-22T08:09:50;6.22;;;3.92;;
23338;SDS011;11841;49.368;20.962;2022-07-22T08:12:26;10.15;;;4.50;;
23338;SDS011;11841;49.368;20.962;2022-07-22T08:14:53;13.40;;;4.85;;
23338;SDS011;11841;49.368;20.962;2022-07-22T08:17:19;10.50;;;5.05;;
23338;SDS011;11841;49.368;20.962;2022-07-22T08:19:46;15.75;;;5.28;;
23338;SDS011;11841;49.368;20.962;2022-07-22T08:22:13;8.18;;;5.43;;
23338;SDS011;11841;49.368;20.962;2022-07-22T08:24:39;8.57;;;5.00;;
23338;SDS011;11841;49.368;20.962;2022-07-22T08:27:06;10.60;;;5.63;;
23338;SDS011;11841;49.368;20.962;2022-07-22T08:29:33;14.43;;;5.43;;
23338;SDS011;11841;49.368;20.962;2022-07-22T08:31:59;9.43;;;4.60;;
23338;SDS011;11841;49.368;20.962;2022-07-22T08:34:26;8.48;;;4.40;;
23338;SDS011;11841;49.368;20.962;2022-07-22T08:36:53;10.25;;;5.70;;
23338;SDS011;11841;49.368;20.962;2022-07-22T08:39:19;12.95;;;5.30;;
23338;SDS011;11841;49.368;20.962;2022-07-22T08:41:48;11.38;;;5.57;;
23338;SDS011;11841;49.368;20.962;2022-07-22T08:44:15;13.10;;;5.85;;
23338;SDS011;11841;49.368;20.962;2022-07-22T08:46:43;12.68;;;5.93;;
23338;SDS011;11841;49.368;20.962;2022-07-22T08:49:15;9.68;;;5.45;;
23338;SDS011;11841;49.368;20.962;2022-07-22T08:51:42;12.10;;;5.60;;
23338;SDS011;11841;49.368;20.962;2022-07-22T08:54:12;10.45;;;4.93;;
23338;SDS011;11841;49.368;20.962;2022-07-22T08:56:39;12.20;;;5.70;;
23338;SDS011;11841;49.368;20.962;2022-07-22T08:59:06;19.20;;;5.43;;
23338;SDS011;11841;49.368;20.962;2022-07-22T09:01:33;9.23;;;4.70;;
23338;SDS011;11841;49.368;20.962;2022-07-22T09:04:00;14.80;;;5.40;;
23338;SDS011;11841;49.368;20.962;2022-07-22T09:06:27;12.95;;;5.50;;
23338;SDS011;11841;49.368;20.962;2022-07-22T09:09:00;11.90;;;6.18;;
23338;SDS011;11841;49.368;20.962;2022-07-22T09:11:32;13.55;;;5.32;;
23338;SDS011;11841;49.368;20.962;2022-07-22T09:13:59;12.52;;;6.07;;
23338;SDS011;11841;49.368;20.962;2022-07-22T09:16:40;10.18;;;6.28;;
23338;SDS011;11841;49.368;20.962;2022-07-22T09:19:07;11.48;;;5.82;;
23338;SDS011;11841;49.368;20.962;2022-07-22T09:21:38;13.52;;;5.95;;
23338;SDS011;11841;49.368;20.962;2022-07-22T09:24:06;12.77;;;5.38;;
23338;SDS011;11841;49.368;20.962;2022-07-22T09:26:38;14.20;;;6.37;;
23338;SDS011;11841;49.368;20.962;2022-07-22T09:29:06;10.63;;;5.65;;
23338;SDS011;11841;49.368;20.962;2022-07-22T09:34:03;13.23;;;6.40;;
23338;SDS011;11841;49.368;20.962;2022-07-22T09:36:30;13.00;;;6.30;;
23338;SDS011;11841;49.368;20.962;2022-07-22T09:38:57;10.63;;;6.10;;
23338;SDS011;11841;49.368;20.962;2022-07-22T09:41:25;10.43;;;5.97;;
23338;SDS011;11841;49.368;20.962;2022-07-22T09:43:51;11.85;;;5.78;;
23338;SDS011;11841;49.368;20.962;2022-07-22T09:46:32;12.82;;;5.85;;
23338;SDS011;11841;49.368;20.962;2022-07-22T09:49:03;9.85;;;5.57;;
23338;SDS011;11841;49.368;20.962;2022-07-22T09:51:30;21.55;;;6.70;;
23338;SDS011;11841;49.368;20.962;2022-07-22T09:53:56;10.27;;;6.53;;
23338;SDS011;11841;49.368;20.962;2022-07-22T09:56:24;10.05;;;6.28;;
23338;SDS011;11841;49.368;20.962;2022-07-22T09:58:52;13.95;;;6.28;;
23338;SDS011;11841;49.368;20.962;2022-07-22T10:01:18;9.38;;;6.45;;
23338;SDS011;11841;49.368;20.962;2022-07-22T10:03:46;8.77;;;6.20;;
23338;SDS011;11841;49.368;20.962;2022-07-22T10:06:17;10.85;;;5.80;;
23338;SDS011;11841;49.368;20.962;2022-07-22T10:08:44;14.38;;;7.15;;
23338;SDS011;11841;49.368;20.962;2022-07-22T10:11:11;8.98;;;6.03;;
23338;SDS011;11841;49.368;20.962;2022-07-22T10:13:38;11.35;;;6.22;;
23338;SDS011;11841;49.368;20.962;2022-07-22T10:16:05;10.23;;;6.07;;
23338;SDS011;11841;49.368;20.962;2022-07-22T10:18:33;9.35;;;5.82;;
23338;SDS011;11841;49.368;20.962;2022-07-22T10:21:01;11.02;;;6.45;;
23338;SDS011;11841;49.368;20.962;2022-07-22T10:23:32;18.02;;;6.70;;
23338;SDS011;11841;49.368;20.962;2022-07-22T10:26:00;9.65;;;6.38;;
23338;SDS011;11841;49.368;20.962;2022-07-22T10:36:13;12.82;;;8.05;;
23338;SDS011;11841;49.368;20.962;2022-07-22T10:39:01;9.75;;;6.28;;
23338;SDS011;11841;49.368;20.962;2022-07-22T10:41:39;10.73;;;5.97;;
23338;SDS011;11841;49.368;20.962;2022-07-22T10:44:08;14.23;;;7.35;;
23338;SDS011;11841;49.368;20.962;2022-07-22T10:46:51;18.95;;;6.32;;
23338;SDS011;11841;49.368;20.962;2022-07-22T10:49:21;12.50;;;6.32;;
23338;SDS011;11841;49.368;20.962;2022-07-22T10:52:23;16.10;;;6.47;;
23338;SDS011;11841;49.368;20.962;2022-07-22T10:57:47;14.63;;;6.15;;
23338;SDS011;11841;49.368;20.962;2022-07-22T11:02:42;16.15;;;7.57;;
23338;SDS011;11841;49.368;20.962;2022-07-22T11:05:09;13.60;;;6.63;;
23338;SDS011;11841;49.368;20.962;2022-07-22T11:07:46;11.07;;;6.50;;
23338;SDS011;11841;49.368;20.962;2022-07-22T11:10:16;14.15;;;6.63;;
23338;SDS011;11841;49.368;20.962;2022-07-22T11:12:47;11.18;;;6.50;;
23338;SDS011;11841;49.368;20.962;2022-07-22T11:15:15;12.27;;;6.82;;
23338;SDS011;11841;49.368;20.962;2022-07-22T11:17:42;12.10;;;7.28;;
23338;SDS011;11841;49.368;20.962;2022-07-22T11:20:10;17.58;;;7.63;;
23338;SDS011;11841;49.368;20.962;2022-07-22T11:22:39;14.23;;;6.65;;
23338;SDS011;11841;49.368;20.962;2022-07-22T11:25:06;11.30;;;6.55;;
23338;SDS011;11841;49.368;20.962;2022-07-22T11:27:35;12.45;;;7.75;;
23338;SDS011;11841;49.368;20.962;2022-07-22T11:30:02;10.98;;;7.05;;
23338;SDS011;11841;49.368;20.962;2022-07-22T11:32:32;15.82;;;7.50;;
23338;SDS011;11841;49.368;20.962;2022-07-22T11:34:59;12.02;;;7.63;;
23338;SDS011;11841;49.368;20.962;2022-07-22T11:37:26;15.63;;;7.35;;
23338;SDS011;11841;49.368;20.962;2022-07-22T11:40:01;13.85;;;7.15;;
23338;SDS011;11841;49.368;20.962;2022-07-22T11:42:35;13.25;;;6.97;;
23338;SDS011;11841;49.368;20.962;2022-07-22T11:45:02;16.70;;;7.63;;
23338;SDS011;11841;49.368;20.962;2022-07-22T11:47:30;13.77;;;7.00;;
23338;SDS011;11841;49.368;20.962;2022-07-22T11:49:56;11.93;;;7.13;;
23338;SDS011;11841;49.368;20.962;2022-07-22T11:52:23;14.60;;;6.90;;
23338;SDS011;11841;49.368;20.962;2022-07-22T11:54:50;16.77;;;8.05;;
23338;SDS011;11841;49.368;20.962;2022-07-22T11:57:16;21.00;;;7.72;;
23338;SDS011;11841;49.368;20.962;2022-07-22T11:59:43;16.05;;;8.23;;
23338;SDS011;11841;49.368;20.962;2022-07-22T12:02:10;11.52;;;6.43;;
23338;SDS011;11841;49.368;20.962;2022-07-22T12:04:40;17.60;;;8.38;;
23338;SDS011;11841;49.368;20.962;2022-07-22T12:07:07;17.95;;;7.78;;
23338;SDS011;11841;49.368;20.962;2022-07-22T12:09:37;16.25;;;8.13;;
23338;SDS011;11841;49.368;20.962;2022-07-22T12:12:07;15.57;;;8.05;;
23338;SDS011;11841;49.368;20.962;2022-07-22T12:14:34;11.10;;;7.07;;
23338;SDS011;11841;49.368;20.962;2022-07-22T12:17:02;11.57;;;7.38;;
23338;SDS011;11841;49.368;20.962;2022-07-22T12:19:34;18.75;;;7.93;;
23338;SDS011;11841;49.368;20.962;2022-07-22T12:24:32;19.15;;;8.07;;
23338;SDS011;11841;49.368;20.962;2022-07-22T12:27:01;18.45;;;7.38;;
23338;SDS011;11841;49.368;20.962;2022-07-22T12:32:09;16.40;;;8.23;;
23338;SDS011;11841;49.368;20.962;2022-07-22T12:34:57;15.95;;;7.30;;
23338;SDS011;11841;49.368;20.962;2022-07-22T12:40:04;10.00;;;6.93;;
23338;SDS011;11841;49.368;20.962;2022-07-22T12:42:33;10.90;;;7.03;;
23338;SDS011;11841;49.368;20.962;2022-07-22T12:50:20;16.17;;;7.20;;
23338;SDS011;11841;49.368;20.962;2022-07-22T12:53:15;10.23;;;6.57;;
23338;SDS011;11841;49.368;20.962;2022-07-22T12:55:45;11.27;;;7.25;;
23338;SDS011;11841;49.368;20.962;2022-07-22T12:58:14;18.42;;;7.88;;
23338;SDS011;11841;49.368;20.962;2022-07-22T13:00:44;13.18;;;7.80;;
23338;SDS011;11841;49.368;20.962;2022-07-22T13:03:12;12.60;;;7.82;;
23338;SDS011;11841;49.368;20.962;2022-07-22T13:05:39;16.52;;;7.70;;
23338;SDS011;11841;49.368;20.962;2022-07-22T13:08:07;19.08;;;7.30;;
23338;SDS011;11841;49.368;20.962;2022-07-22T13:10:35;19.45;;;7.45;;
23338;SDS011;11841;49.368;20.962;2022-07-22T13:13:04;11.27;;;7.90;;
23338;SDS011;11841;49.368;20.962;2022-07-22T13:15:31;17.13;;;7.68;;
23338;SDS011;11841;49.368;20.962;2022-07-22T13:17:58;16.95;;;7.38;;
23338;SDS011;11841;49.368;20.962;2022-07-22T13:20:24;17.65;;;8.05;;
23338;SDS011;11841;49.368;20.962;2022-07-22T13:22:51;14.60;;;8.27;;
23338;SDS011;11841;49.368;20.962;2022-07-22T13:25:18;10.88;;;7.22;;
23338;SDS011;11841;49.368;20.962;2022-07-22T13:27:44;14.48;;;7.32;;
23338;SDS011;11841;49.368;20.962;2022-07-22T13:30:12;13.02;;;7.75;;
23338;SDS011;11841;49.368;20.962;2022-07-22T13:32:39;19.23;;;7.97;;
23338;SDS011;11841;49.368;20.962;2022-07-22T13:35:14;9.98;;;7.47;;
23338;SDS011;11841;49.368;20.962;2022-07-22T13:37:40;15.90;;;8.10;;
23338;SDS011;11841;49.368;20.962;2022-07-22T13:40:07;13.68;;;7.70;;
23338;SDS011;11841;49.368;20.962;2022-07-22T13:42:34;13.77;;;8.10;;
23338;SDS011;11841;49.368;20.962;2022-07-22T13:45:01;11.82;;;7.70;;
23338;SDS011;11841;49.368;20.962;2022-07-22T13:47:29;18.30;;;5.03;;
23338;SDS011;11841;49.368;20.962;2022-07-22T13:49:56;7.28;;;3.33;;
23338;SDS011;11841;49.368;20.962;2022-07-22T13:52:23;12.55;;;4.13;;
23338;SDS011;11841;49.368;20.962;2022-07-22T13:54:50;11.18;;;3.42;;
23338;SDS011;11841;49.368;20.962;2022-07-22T13:57:17;8.93;;;4.50;;
23338;SDS011;11841;49.368;20.962;2022-07-22T14:10:45;16.00;;;5.63;;
23338;SDS011;11841;49.368;20.962;2022-07-22T14:13:12;16.35;;;5.50;;
23338;SDS011;11841;49.368;20.962;2022-07-22T14:15:39;13.50;;;6.05;;
23338;SDS011;11841;49.368;20.962;2022-07-22T14:18:05;19.27;;;7.13;;
23338;SDS011;11841;49.368;20.962;2022-07-22T14:20:33;23.02;;;6.15;;
23338;SDS011;11841;49.368;20.962;2022-07-22T14:23:01;16.73;;;6.03;;
23338;SDS011;11841;49.368;20.962;2022-07-22T14:25:29;19.47;;;6.90;;
23338;SDS011;11841;49.368;20.962;2022-07-22T14:27:55;22.63;;;6.72;;
23338;SDS011;11841;49.368;20.962;2022-07-22T14:30:42;12.52;;;6.10;;
23338;SDS011;11841;49.368;20.962;2022-07-22T14:33:09;17.02;;;6.93;;
23338;SDS011;11841;49.368;20.962;2022-07-22T14:35:36;16.92;;;6.18;;
23338;SDS011;11841;49.368;20.962;2022-07-22T14:38:02;9.40;;;5.57;;
23338;SDS011;11841;49.368;20.962;2022-07-22T14:40:29;10.90;;;6.10;;
23338;SDS011;11841;49.368;20.962;2022-07-22T14:42:55;14.35;;;6.55;;
23338;SDS011;11841;49.368;20.962;2022-07-22T14:45:42;12.23;;;5.90;;
23338;SDS011;11841;49.368;20.962;2022-07-22T14:48:09;10.80;;;5.57;;
23338;SDS011;11841;49.368;20.962;2022-07-22T14:50:36;18.40;;;6.30;;
23338;SDS011;11841;49.368;20.962;2022-07-22T14:53:02;12.45;;;5.80;;
23338;SDS011;11841;49.368;20.962;2022-07-22T14:55:29;16.00;;;6.13;;
23338;SDS011;11841;49.368;20.962;2022-07-22T14:57:55;21.35;;;6.63;;
23338;SDS011;11841;49.368;20.962;2022-07-22T15:00:22;12.27;;;5.60;;
23338;SDS011;11841;49.368;20.962;2022-07-22T15:02:49;22.40;;;6.38;;
23338;SDS011;11841;49.368;20.962;2022-07-22T15:05:15;14.93;;;6.45;;
23338;SDS011;11841;49.368;20.962;2022-07-22T15:07:42;17.90;;;5.95;;
23338;SDS011;11841;49.368;20.962;2022-07-22T15:10:09;16.35;;;6.20;;